Nora, Nebraska
Current Conditions -  °F | °C
As of 7:15 AM on Thursday 27 Nov 2014 (Local Time) from KHJH Reporting Station
Scattered Clouds Scattered Clouds  
Wind Chill: 18°   Ceiling: Unl
Heat Index: 18°   Visibility: 10mi
Dew Point: 11°   Wind: 3mph
Humidity: 76%   Direction: 140°SE
Pressure: 30.48"   Gusts: NA
Location:  40.2199°N, 98.0479°W
Report Text: KHJH 271315Z AUTO 14003KT 10SM SCT080 M08/M11 A3048 RMK AO2 T10791115
Loading
Personal Weather Stations






























Interactive Weather Map New forecast layout! Learn more

10-Day Weather Forecast

Advertisements
Track Severe Weather on mobile